createdAt,value
2022-08-18T00:01:11.821Z,18.20
2022-08-18T00:03:56.673Z,18.10
2022-08-18T00:06:29.517Z,18.10
2022-08-18T00:09:00.753Z,18.20
2022-08-18T00:11:41.654Z,18.10
2022-08-18T00:14:14.531Z,17.90
2022-08-18T00:16:52.645Z,17.90
2022-08-18T00:19:43.419Z,17.80
2022-08-18T00:22:14.867Z,17.80
2022-08-18T00:24:48.498Z,17.80
2022-08-18T00:27:21.603Z,17.80
2022-08-18T00:29:50.387Z,17.80
2022-08-18T00:32:21.439Z,17.80
2022-08-18T00:34:49.509Z,17.80
2022-08-18T00:37:17.643Z,17.80
2022-08-18T00:39:48.120Z,17.70
2022-08-18T00:42:27.777Z,17.80
2022-08-18T00:45:02.227Z,17.90
2022-08-18T00:47:40.997Z,17.80
2022-08-18T00:50:15.954Z,17.80
2022-08-18T00:52:50.402Z,17.90
2022-08-18T00:55:21.757Z,17.90
2022-08-18T00:57:53.434Z,17.90
2022-08-18T01:00:22.295Z,17.90
2022-08-18T01:02:55.718Z,17.90
2022-08-18T01:05:28.380Z,18.00
2022-08-18T01:07:56.689Z,17.90
2022-08-18T01:10:26.061Z,18.00
2022-08-18T01:12:57.155Z,17.90
2022-08-18T01:15:29.116Z,17.90
2022-08-18T01:18:16.662Z,18.00
2022-08-18T01:21:15.822Z,18.00
2022-08-18T01:23:46.924Z,18.00
2022-08-18T01:26:17.724Z,17.90
2022-08-18T01:28:47.383Z,17.90
2022-08-18T01:31:32.980Z,17.90
2022-08-18T01:34:01.206Z,17.90
2022-08-18T01:36:30.330Z,17.90
2022-08-18T01:38:59.786Z,17.90
2022-08-18T01:41:30.705Z,17.80
2022-08-18T01:44:00.875Z,17.80
2022-08-18T01:46:30.487Z,17.90
2022-08-18T01:49:01.278Z,17.80
2022-08-18T01:51:39.981Z,17.80
2022-08-18T01:54:13.003Z,17.70
2022-08-18T01:56:43.157Z,17.70
2022-08-18T01:59:15.140Z,17.70
2022-08-18T02:01:48.375Z,17.70
2022-08-18T02:04:36.909Z,17.60
2022-08-18T02:07:08.727Z,17.90
2022-08-18T02:09:39.960Z,17.50
2022-08-18T02:12:08.988Z,17.60
2022-08-18T02:14:37.320Z,17.70
2022-08-18T02:17:08.313Z,17.70
2022-08-18T02:19:38.515Z,17.60
2022-08-18T02:22:08.264Z,17.50
2022-08-18T02:24:38.039Z,17.60
2022-08-18T02:27:07.075Z,17.40
2022-08-18T02:29:35.381Z,17.40
2022-08-18T02:32:03.825Z,17.40
2022-08-18T02:34:31.865Z,17.40
2022-08-18T02:37:00.604Z,17.30
2022-08-18T02:39:29.124Z,17.30
2022-08-18T02:41:58.730Z,17.30
2022-08-18T02:44:26.788Z,17.20
2022-08-18T02:46:55.553Z,17.10
2022-08-18T02:49:23.636Z,17.10
2022-08-18T02:51:53.582Z,17.00
2022-08-18T02:54:23.115Z,17.00
2022-08-18T02:56:52.097Z,17.00
2022-08-18T02:59:28.323Z,16.90
2022-08-18T03:02:00.247Z,16.90
2022-08-18T03:04:30.959Z,17.00
2022-08-18T03:07:01.337Z,16.80
2022-08-18T03:09:30.900Z,16.80
2022-08-18T03:11:59.776Z,16.70
2022-08-18T03:14:29.411Z,16.70
2022-08-18T03:16:57.605Z,16.70
2022-08-18T03:19:26.494Z,16.60
2022-08-18T03:21:58.076Z,16.50
2022-08-18T03:24:27.152Z,16.60
2022-08-18T03:26:56.790Z,16.50
2022-08-18T03:29:29.506Z,16.50
2022-08-18T03:32:02.440Z,16.60
2022-08-18T03:34:32.287Z,16.60
2022-08-18T03:37:00.725Z,16.50
2022-08-18T03:39:29.774Z,16.50
2022-08-18T03:42:01.645Z,16.40
2022-08-18T03:44:31.749Z,16.40
2022-08-18T03:47:02.947Z,16.30
2022-08-18T03:49:31.408Z,16.30
2022-08-18T03:52:00.933Z,16.30
2022-08-18T03:54:31.987Z,16.30
2022-08-18T03:57:00.240Z,16.30
2022-08-18T03:59:31.680Z,16.30
2022-08-18T04:02:03.490Z,16.20
2022-08-18T04:04:32.237Z,16.20
2022-08-18T04:07:04.635Z,16.00
2022-08-18T04:09:34.386Z,16.10
2022-08-18T04:12:16.384Z,15.90
2022-08-18T04:14:48.059Z,15.70
2022-08-18T04:17:23.935Z,16.00
2022-08-18T04:19:52.514Z,16.10
2022-08-18T04:22:20.767Z,15.90
2022-08-18T04:24:50.236Z,15.90
2022-08-18T04:27:19.223Z,15.80
2022-08-18T04:29:47.748Z,15.70
2022-08-18T04:32:17.323Z,15.80
2022-08-18T04:34:45.516Z,15.70
2022-08-18T04:37:13.874Z,15.60
2022-08-18T04:39:42.023Z,15.60
2022-08-18T04:42:10.313Z,15.70
2022-08-18T04:44:38.806Z,15.70
2022-08-18T04:47:09.010Z,15.80
2022-08-18T04:49:38.813Z,15.90
2022-08-18T04:52:40.141Z,16.00
2022-08-18T04:55:10.839Z,16.00
2022-08-18T04:57:39.000Z,16.10
2022-08-18T05:00:08.478Z,16.10
2022-08-18T05:02:36.541Z,16.10
2022-08-18T05:05:07.177Z,16.20
2022-08-18T05:07:35.217Z,16.20
2022-08-18T05:10:03.295Z,16.20
2022-08-18T05:12:31.337Z,16.20
2022-08-18T05:14:59.386Z,16.30
2022-08-18T05:17:30.145Z,16.40
2022-08-18T05:19:59.925Z,16.40
2022-08-18T05:22:31.312Z,16.40
2022-08-18T05:25:00.229Z,16.40
2022-08-18T05:27:33.222Z,16.50
2022-08-18T05:30:01.315Z,16.60
2022-08-18T05:32:48.033Z,16.60
2022-08-18T05:35:24.185Z,16.70
2022-08-18T05:38:24.932Z,16.90
2022-08-18T05:41:08.583Z,17.00
2022-08-18T05:43:51.456Z,17.30
2022-08-18T05:46:23.487Z,17.30
2022-08-18T05:48:51.864Z,17.40
2022-08-18T05:51:31.609Z,17.50
2022-08-18T05:54:19.930Z,17.50
2022-08-18T05:56:51.114Z,17.50
2022-08-18T05:59:24.665Z,17.70
2022-08-18T06:01:59.785Z,17.80
2022-08-18T06:04:35.803Z,18.10
2022-08-18T06:07:08.250Z,18.00
2022-08-18T06:09:43.589Z,18.10
2022-08-18T06:12:25.391Z,18.00
2022-08-18T06:14:56.567Z,18.20
2022-08-18T06:17:43.856Z,18.20
2022-08-18T06:20:24.746Z,18.30
2022-08-18T06:23:01.802Z,18.40
2022-08-18T06:25:38.527Z,18.40
2022-08-18T06:28:13.194Z,18.40
2022-08-18T06:30:55.311Z,18.50
2022-08-18T06:33:41.163Z,18.40
2022-08-18T06:36:19.236Z,18.40
2022-08-18T06:39:02.346Z,18.50
2022-08-18T06:41:42.101Z,18.40
2022-08-18T06:44:14.666Z,18.60
2022-08-18T06:46:46.711Z,18.50
2022-08-18T06:49:23.186Z,18.50
2022-08-18T06:51:51.423Z,18.80
2022-08-18T06:54:29.326Z,18.80
2022-08-18T06:56:59.923Z,19.20
2022-08-18T06:59:31.277Z,19.10
2022-08-18T07:02:02.581Z,19.00
2022-08-18T07:04:38.647Z,19.10
2022-08-18T07:07:20.422Z,19.30
2022-08-18T07:09:49.776Z,19.30
2022-08-18T07:12:30.488Z,19.30
2022-08-18T07:15:03.221Z,19.10
2022-08-18T07:17:52.908Z,19.30
2022-08-18T07:20:24.570Z,19.20
2022-08-18T07:22:56.767Z,19.40
2022-08-18T07:25:30.923Z,19.20
2022-08-18T07:28:02.626Z,19.00
2022-08-18T07:30:34.167Z,19.20
2022-08-18T07:33:10.546Z,19.10
2022-08-18T07:35:43.947Z,19.20
2022-08-18T07:38:41.362Z,19.30
2022-08-18T07:41:15.995Z,19.70
2022-08-18T07:43:53.477Z,19.90
2022-08-18T07:46:28.381Z,20.10
2022-08-18T07:48:58.772Z,19.90
2022-08-18T07:51:37.572Z,19.60
2022-08-18T07:54:31.157Z,20.00
2022-08-18T07:57:06.575Z,20.50
2022-08-18T07:59:41.713Z,20.80
2022-08-18T08:02:23.191Z,20.20
2022-08-18T08:05:04.331Z,20.30
2022-08-18T08:07:46.417Z,20.40
2022-08-18T08:10:31.563Z,20.60
2022-08-18T08:13:09.814Z,20.70
2022-08-18T08:15:49.539Z,20.60
2022-08-18T08:18:24.625Z,20.40
2022-08-18T08:20:55.942Z,20.50
2022-08-18T08:23:30.538Z,20.70
2022-08-18T08:26:18.497Z,21.20
2022-08-18T08:28:56.167Z,21.10
2022-08-18T08:31:38.462Z,21.00
2022-08-18T08:34:12.147Z,21.10
2022-08-18T08:36:45.021Z,21.10
2022-08-18T08:39:20.002Z,21.00
2022-08-18T08:42:29.697Z,21.20
2022-08-18T08:44:59.352Z,21.40
2022-08-18T08:47:33.662Z,21.50
2022-08-18T08:50:05.314Z,21.30
2022-08-18T08:52:41.024Z,21.40
2022-08-18T08:55:14.618Z,21.70
2022-08-18T08:57:48.747Z,21.60
2022-08-18T09:00:17.384Z,21.00
2022-08-18T09:03:06.857Z,21.70
2022-08-18T09:05:41.402Z,21.70
2022-08-18T09:08:30.442Z,22.00
2022-08-18T09:11:31.252Z,21.90
2022-08-18T09:14:24.009Z,22.40
2022-08-18T09:17:07.542Z,22.70
2022-08-18T09:19:55.001Z,22.40
2022-08-18T09:22:37.724Z,22.00
2022-08-18T09:25:11.940Z,22.50
2022-08-18T09:28:09.538Z,22.50
2022-08-18T09:30:55.217Z,22.80
2022-08-18T09:33:35.338Z,22.70
2022-08-18T09:36:21.363Z,22.40
2022-08-18T09:39:18.396Z,23.00
2022-08-18T09:41:53.070Z,23.20
2022-08-18T09:45:01.575Z,22.90
2022-08-18T09:47:58.897Z,23.30
2022-08-18T09:50:38.887Z,23.10
2022-08-18T09:53:38.036Z,22.90
2022-08-18T09:56:08.163Z,23.00
2022-08-18T09:58:58.675Z,23.10
2022-08-18T10:01:43.353Z,23.50
2022-08-18T10:04:29.271Z,23.60
2022-08-18T10:07:18.250Z,23.70
2022-08-18T10:09:58.706Z,23.60
2022-08-18T10:12:37.244Z,23.70
2022-08-18T10:15:40.641Z,23.40
2022-08-18T10:18:35.441Z,23.80
2022-08-18T10:21:12.680Z,24.00
2022-08-18T10:24:35.241Z,24.10
2022-08-18T10:27:08.602Z,23.80
2022-08-18T10:29:55.626Z,24.10
2022-08-18T10:32:54.639Z,24.10
2022-08-18T10:35:59.068Z,23.80
2022-08-18T10:38:53.261Z,24.30
2022-08-18T10:41:30.998Z,24.20
2022-08-18T10:44:15.535Z,24.80
2022-08-18T10:46:53.368Z,24.90
2022-08-18T10:49:26.259Z,24.70
2022-08-18T10:52:35.223Z,24.30
2022-08-18T10:55:17.766Z,24.30
2022-08-18T10:58:13.560Z,24.60
2022-08-18T11:01:01.866Z,25.40
2022-08-18T11:03:55.943Z,25.50
2022-08-18T11:06:26.220Z,25.60
2022-08-18T11:09:00.262Z,25.90
2022-08-18T11:11:37.263Z,25.50
2022-08-18T11:15:00.089Z,25.30
2022-08-18T11:17:42.883Z,26.00
2022-08-18T11:20:14.280Z,26.40
2022-08-18T11:22:51.632Z,26.20
2022-08-18T11:25:25.121Z,26.00
2022-08-18T11:27:57.013Z,25.90
2022-08-18T11:30:31.470Z,25.40
2022-08-18T11:33:05.703Z,25.80
2022-08-18T11:35:46.127Z,26.10
2022-08-18T11:38:20.923Z,26.40
2022-08-18T11:41:12.050Z,26.60
2022-08-18T11:46:32.198Z,26.20
2022-08-18T11:49:14.023Z,26.80
2022-08-18T11:51:56.970Z,27.00
2022-08-18T12:01:01.437Z,27.10
2022-08-18T12:03:41.722Z,27.20
2022-08-18T12:06:23.573Z,27.70
2022-08-18T12:09:02.622Z,26.80
2022-08-18T12:11:33.623Z,27.00
2022-08-18T12:16:55.349Z,26.80
2022-08-18T12:19:25.329Z,27.00
2022-08-18T12:21:58.587Z,27.40
2022-08-18T12:24:29.409Z,27.70
2022-08-18T12:27:20.447Z,28.40
2022-08-18T12:29:50.566Z,28.40
2022-08-18T12:32:56.034Z,28.20
2022-08-18T12:35:11.167Z,28.00
2022-08-18T12:38:11.049Z,28.20
2022-08-18T12:40:32.591Z,28.20
2022-08-18T12:43:01.183Z,28.30
2022-08-18T12:45:31.151Z,27.90
2022-08-18T12:48:04.468Z,28.50
2022-08-18T12:50:37.556Z,28.80
2022-08-18T12:53:12.611Z,28.80
2022-08-18T12:55:45.478Z,28.50
2022-08-18T12:58:13.788Z,28.50
2022-08-18T13:00:43.347Z,28.30
2022-08-18T13:03:11.430Z,28.70
2022-08-18T13:05:39.556Z,28.30
2022-08-18T13:08:12.756Z,28.40
2022-08-18T13:11:20.881Z,28.40
2022-08-18T13:13:52.939Z,28.70
2022-08-18T13:16:38.986Z,28.40
2022-08-18T13:19:14.256Z,28.30
2022-08-18T13:21:43.180Z,28.10
2022-08-18T13:24:12.734Z,27.90
2022-08-18T13:26:45.599Z,27.70
2022-08-18T13:29:15.479Z,27.70
2022-08-18T13:31:55.713Z,27.70
2022-08-18T13:34:27.460Z,27.50
2022-08-18T13:36:58.628Z,27.40
2022-08-18T13:39:34.225Z,27.30
2022-08-18T13:42:26.731Z,27.40
2022-08-18T13:44:54.994Z,27.30
2022-08-18T13:47:29.165Z,27.20
2022-08-18T13:49:59.813Z,27.00
2022-08-18T13:52:34.482Z,27.00
2022-08-18T13:55:08.248Z,27.30
2022-08-18T13:57:39.063Z,27.00
2022-08-18T14:00:18.178Z,27.10
2022-08-18T14:02:51.015Z,27.10
2022-08-18T14:05:20.541Z,27.00
2022-08-18T14:07:49.172Z,27.00
2022-08-18T14:10:17.557Z,27.10
2022-08-18T14:12:47.789Z,27.20
2022-08-18T14:15:17.865Z,27.30
2022-08-18T14:17:47.086Z,27.20
2022-08-18T14:20:34.364Z,27.10
2022-08-18T14:23:21.687Z,27.20
2022-08-18T14:26:09.692Z,27.10
2022-08-18T14:28:41.471Z,27.10
2022-08-18T14:31:11.697Z,27.00
2022-08-18T14:33:50.762Z,27.00
2022-08-18T14:36:29.559Z,26.80
2022-08-18T14:38:58.938Z,27.00
2022-08-18T14:41:27.373Z,26.80
2022-08-18T14:44:11.588Z,26.80
2022-08-18T14:46:53.999Z,27.10
2022-08-18T14:49:28.266Z,27.00
2022-08-18T14:51:57.857Z,27.20
2022-08-18T14:54:28.535Z,27.10
2022-08-18T14:56:58.719Z,27.00
2022-08-18T14:59:28.519Z,27.00
2022-08-18T15:01:56.777Z,27.20
2022-08-18T15:04:25.151Z,27.10
2022-08-18T15:06:56.316Z,27.20
2022-08-18T15:09:27.228Z,27.00
2022-08-18T15:11:56.745Z,26.80
2022-08-18T15:14:32.671Z,27.00
2022-08-18T15:17:03.855Z,27.10
2022-08-18T15:20:00.193Z,26.90
2022-08-18T15:22:45.886Z,26.50
2022-08-18T15:25:34.170Z,26.40
2022-08-18T15:28:02.943Z,25.90
2022-08-18T15:30:32.141Z,25.30
2022-08-18T15:33:03.092Z,25.10
2022-08-18T15:35:31.902Z,25.20
2022-08-18T15:38:05.053Z,25.30
2022-08-18T15:40:36.098Z,25.60
2022-08-18T15:43:10.569Z,26.10
2022-08-18T15:45:51.098Z,26.10
2022-08-18T15:48:27.761Z,25.60
2022-08-18T15:50:56.903Z,25.60
2022-08-18T15:53:29.555Z,25.20
2022-08-18T15:55:58.703Z,25.20
2022-08-18T15:58:32.578Z,25.10
2022-08-18T16:01:00.687Z,24.90
2022-08-18T16:03:31.612Z,25.30
2022-08-18T16:05:59.803Z,24.90
2022-08-18T16:08:27.948Z,24.70
2022-08-18T16:10:56.582Z,24.50
2022-08-18T16:13:26.388Z,24.50
2022-08-18T16:15:54.557Z,24.40
2022-08-18T16:18:22.646Z,24.40
2022-08-18T16:20:52.753Z,24.40
2022-08-18T16:23:25.075Z,24.50
2022-08-18T16:25:53.265Z,24.40
2022-08-18T16:28:21.425Z,24.40
2022-08-18T16:31:03.492Z,24.30
2022-08-18T16:33:31.741Z,24.20
2022-08-18T16:36:05.861Z,24.20
2022-08-18T16:38:34.092Z,24.10
2022-08-18T16:41:07.441Z,24.10
2022-08-18T16:43:38.085Z,24.20
2022-08-18T16:46:11.302Z,24.20
2022-08-18T16:48:39.453Z,24.20
2022-08-18T16:51:12.803Z,24.20
2022-08-18T16:53:40.932Z,24.40
2022-08-18T16:56:13.649Z,24.60
2022-08-18T16:58:59.247Z,24.40
2022-08-18T17:01:49.033Z,24.30
2022-08-18T17:04:20.767Z,24.20
2022-08-18T17:06:51.162Z,24.30
2022-08-18T17:09:20.549Z,24.20
2022-08-18T17:11:52.055Z,24.00
2022-08-18T17:14:21.567Z,24.00
2022-08-18T17:16:54.271Z,24.00
2022-08-18T17:19:23.308Z,23.80
2022-08-18T17:21:53.321Z,23.80
2022-08-18T17:24:31.198Z,23.90
2022-08-18T17:27:24.176Z,23.80
2022-08-18T17:30:00.582Z,23.80
2022-08-18T17:35:17.731Z,23.70
2022-08-18T17:37:54.507Z,23.70
2022-08-18T17:40:28.839Z,23.60
2022-08-18T17:42:58.574Z,23.50
2022-08-18T17:45:28.472Z,23.50
2022-08-18T17:48:02.975Z,23.50
2022-08-18T17:50:54.428Z,23.50
2022-08-18T17:53:24.193Z,23.50
2022-08-18T17:55:59.739Z,23.40
2022-08-18T17:58:34.258Z,19.40
2022-08-18T18:01:02.975Z,18.80
2022-08-18T18:03:31.385Z,18.60
2022-08-18T18:08:54.642Z,18.40
2022-08-18T18:11:27.885Z,18.70
2022-08-18T18:14:00.177Z,18.60
2022-08-18T18:16:35.651Z,18.60
2022-08-18T18:19:07.835Z,18.80
2022-08-18T18:22:01.000Z,18.90
2022-08-18T18:24:33.451Z,18.90
2022-08-18T18:27:03.359Z,18.90
2022-08-18T18:29:37.964Z,19.00
2022-08-18T18:32:24.686Z,19.00
2022-08-18T18:35:15.158Z,19.00
2022-08-18T18:37:51.506Z,19.00
2022-08-18T18:40:26.527Z,18.90
2022-08-18T18:42:55.837Z,18.80
2022-08-18T18:45:29.204Z,18.70
2022-08-18T18:48:07.645Z,18.70
2022-08-18T18:50:55.715Z,18.50
2022-08-18T18:53:37.138Z,18.40
2022-08-18T18:56:25.342Z,18.40
2022-08-18T18:58:59.620Z,18.30
2022-08-18T19:01:48.616Z,18.30
2022-08-18T19:04:25.825Z,18.30
2022-08-18T19:07:03.058Z,18.30
2022-08-18T19:09:39.200Z,18.30
2022-08-18T19:12:18.948Z,18.20
2022-08-18T19:14:59.527Z,18.30
2022-08-18T19:17:37.781Z,18.20
2022-08-18T19:20:12.246Z,18.30
2022-08-18T19:22:50.699Z,18.10
2022-08-18T19:25:23.178Z,18.10
2022-08-18T19:27:58.976Z,18.10
2022-08-18T19:30:28.303Z,18.10
2022-08-18T19:33:00.872Z,18.10
2022-08-18T19:35:42.640Z,18.10
2022-08-18T19:38:23.768Z,18.10
2022-08-18T19:40:58.649Z,18.10
2022-08-18T19:43:38.925Z,18.10
2022-08-18T19:46:16.660Z,18.00
2022-08-18T19:48:54.542Z,18.10
2022-08-18T19:51:30.460Z,18.10
2022-08-18T19:54:13.046Z,17.90
2022-08-18T19:57:00.536Z,17.90
2022-08-18T19:59:47.158Z,17.80
2022-08-18T20:02:35.218Z,17.90
2022-08-18T20:05:22.394Z,17.90
2022-08-18T20:08:32.928Z,17.90
2022-08-18T20:11:21.037Z,17.90
2022-08-18T20:14:13.421Z,17.90
2022-08-18T20:17:05.222Z,17.90
2022-08-18T20:19:44.657Z,17.80
2022-08-18T20:22:31.993Z,17.80
2022-08-18T20:25:06.507Z,17.70
2022-08-18T20:27:38.156Z,17.70
2022-08-18T20:30:33.786Z,17.60
2022-08-18T20:33:18.003Z,17.60
2022-08-18T20:35:53.585Z,17.50
2022-08-18T20:38:34.136Z,17.50
2022-08-18T20:41:32.030Z,17.40
2022-08-18T20:44:13.150Z,17.40
2022-08-18T20:46:50.282Z,17.30
2022-08-18T20:49:33.299Z,17.50
2022-08-18T20:52:05.948Z,17.30
2022-08-18T20:54:58.178Z,17.40
2022-08-18T20:57:35.094Z,17.30
2022-08-18T21:00:12.935Z,17.20
2022-08-18T21:02:46.975Z,17.20
2022-08-18T21:05:28.001Z,17.20
2022-08-18T21:08:05.814Z,17.20
2022-08-18T21:10:35.278Z,17.20
2022-08-18T21:13:06.509Z,17.20
2022-08-18T21:15:37.088Z,17.20
2022-08-18T21:18:09.667Z,17.10
2022-08-18T21:20:40.198Z,17.20
2022-08-18T21:23:10.521Z,17.30
2022-08-18T21:25:45.478Z,17.30
2022-08-18T21:28:13.627Z,17.40
2022-08-18T21:30:56.360Z,17.40
2022-08-18T21:33:51.227Z,17.40
2022-08-18T21:36:24.921Z,17.40
2022-08-18T21:39:05.621Z,17.40
2022-08-18T21:41:35.017Z,17.40
2022-08-18T21:44:06.945Z,17.40
2022-08-18T21:46:35.763Z,17.40
2022-08-18T21:49:05.028Z,17.50
2022-08-18T21:51:43.970Z,17.50
2022-08-18T21:54:16.742Z,17.40
2022-08-18T21:56:45.581Z,17.40
2022-08-18T21:59:15.871Z,17.40
2022-08-18T22:01:52.090Z,17.40
2022-08-18T22:04:27.162Z,17.40
2022-08-18T22:06:58.906Z,17.50
2022-08-18T22:09:46.965Z,17.40
2022-08-18T22:12:46.146Z,17.40
2022-08-18T22:15:17.841Z,17.40
2022-08-18T22:17:54.069Z,17.40
2022-08-18T22:20:44.990Z,17.40
2022-08-18T22:23:45.867Z,17.40
2022-08-18T22:26:18.916Z,17.40
2022-08-18T22:28:56.031Z,17.40
2022-08-18T22:31:25.875Z,17.40
2022-08-18T22:33:55.634Z,17.40
2022-08-18T22:36:28.249Z,17.40
2022-08-18T22:38:57.728Z,17.40
2022-08-18T22:41:26.005Z,17.40
2022-08-18T22:43:55.448Z,17.40
2022-08-18T22:46:25.240Z,17.30
2022-08-18T22:48:54.060Z,17.40
2022-08-18T22:51:24.152Z,17.30
2022-08-18T22:53:52.374Z,17.30
2022-08-18T22:56:34.009Z,17.30
2022-08-18T22:59:13.415Z,17.30
2022-08-18T23:01:46.127Z,17.30
2022-08-18T23:04:15.875Z,17.30
2022-08-18T23:06:51.039Z,17.30
2022-08-18T23:09:21.141Z,17.30
2022-08-18T23:11:51.113Z,17.30
2022-08-18T23:14:19.318Z,17.20
2022-08-18T23:16:47.867Z,17.30
2022-08-18T23:19:18.474Z,17.20
2022-08-18T23:21:48.449Z,17.20
2022-08-18T23:24:17.972Z,17.20
2022-08-18T23:26:46.903Z,17.30
2022-08-18T23:29:16.760Z,17.30
2022-08-18T23:31:45.536Z,17.20
2022-08-18T23:34:15.414Z,17.20
2022-08-18T23:36:45.808Z,17.30
2022-08-18T23:39:14.579Z,17.20
2022-08-18T23:41:43.105Z,17.30
2022-08-18T23:44:13.676Z,17.20
2022-08-18T23:46:44.848Z,17.20
2022-08-18T23:49:14.813Z,17.30
2022-08-18T23:51:45.520Z,17.30
2022-08-18T23:54:16.930Z,17.30
2022-08-18T23:56:45.939Z,17.30
2022-08-18T23:59:15.266Z,17.40
